createdAt,value
2017-12-05T00:03:37.911Z,84.27
2017-12-05T00:05:50.979Z,84.34
2017-12-05T00:07:55.945Z,84.33
2017-12-05T00:10:04.272Z,84.29
2017-12-05T00:12:16.239Z,84.32
2017-12-05T00:14:18.516Z,84.34
2017-12-05T00:16:20.709Z,84.27
2017-12-05T00:18:23.193Z,84.32
2017-12-05T00:20:35.198Z,84.32
2017-12-05T00:22:38.052Z,84.35
2017-12-05T00:24:43.382Z,84.34
2017-12-05T00:26:46.438Z,84.33
2017-12-05T00:28:49.440Z,84.33
2017-12-05T00:30:52.214Z,84.30
2017-12-05T00:33:06.010Z,84.39
2017-12-05T00:35:07.661Z,84.39
2017-12-05T00:37:19.248Z,84.40
2017-12-05T00:39:22.208Z,84.37
2017-12-05T00:41:34.825Z,84.45
2017-12-05T00:43:41.227Z,84.44
2017-12-05T00:45:43.264Z,84.41
2017-12-05T00:47:45.268Z,84.44
2017-12-05T00:49:52.389Z,84.41
2017-12-05T00:51:55.195Z,84.43
2017-12-05T00:54:02.235Z,84.46
2017-12-05T00:56:04.239Z,84.47
2017-12-05T00:58:07.686Z,84.48
2017-12-05T01:00:14.391Z,84.43
2017-12-05T01:02:17.770Z,84.46
2017-12-05T01:04:19.383Z,84.46
2017-12-05T01:06:21.243Z,84.53
2017-12-05T01:08:23.240Z,84.49
2017-12-05T01:10:26.596Z,84.50
2017-12-05T01:12:30.019Z,84.53
2017-12-05T01:14:38.201Z,84.57
2017-12-05T01:16:42.213Z,84.50
2017-12-05T01:18:45.082Z,84.55
2017-12-05T01:20:47.984Z,84.48
2017-12-05T01:22:49.765Z,84.49
2017-12-05T01:24:51.355Z,84.48
2017-12-05T01:26:53.241Z,84.48
2017-12-05T01:28:56.227Z,84.48
2017-12-05T01:31:01.096Z,84.50
2017-12-05T01:33:05.782Z,84.48
2017-12-05T01:37:38.733Z,84.51
2017-12-05T01:39:46.724Z,84.50
2017-12-05T01:41:51.970Z,84.50
2017-12-05T01:43:54.743Z,84.47
2017-12-05T01:45:56.729Z,84.47
2017-12-05T01:48:01.774Z,84.48
2017-12-05T01:50:13.170Z,84.49
2017-12-05T01:52:16.096Z,84.51
2017-12-05T01:54:19.835Z,84.51
2017-12-05T01:56:23.800Z,84.52
2017-12-05T01:58:26.693Z,84.50
2017-12-05T02:00:32.427Z,84.50
2017-12-05T02:02:40.857Z,84.53
2017-12-05T02:04:45.203Z,84.51
2017-12-05T02:06:49.781Z,84.50
2017-12-05T02:08:53.688Z,84.53
2017-12-05T02:10:57.388Z,84.54
2017-12-05T02:13:00.583Z,84.54
2017-12-05T02:15:08.795Z,84.50
2017-12-05T02:17:17.519Z,84.50
2017-12-05T02:19:20.789Z,84.56
2017-12-05T02:21:30.814Z,84.54
2017-12-05T02:23:33.839Z,84.54
2017-12-05T02:25:45.853Z,84.56
2017-12-05T02:27:48.727Z,84.60
2017-12-05T02:30:00.829Z,84.61
2017-12-05T02:32:03.824Z,84.57
2017-12-05T02:34:06.720Z,84.60
2017-12-05T02:36:12.364Z,84.66
2017-12-05T02:38:20.942Z,84.65
2017-12-05T02:40:35.946Z,84.65
2017-12-05T02:42:38.799Z,84.66
2017-12-05T02:44:51.723Z,84.66
2017-12-05T02:46:53.693Z,84.64
2017-12-05T02:48:56.465Z,84.64
2017-12-05T02:51:04.055Z,84.67
2017-12-05T02:53:06.847Z,84.66
2017-12-05T02:55:10.374Z,84.63
2017-12-05T02:57:13.407Z,84.68
2017-12-05T02:59:17.039Z,84.71
2017-12-05T03:01:20.758Z,84.75
2017-12-05T03:03:22.812Z,84.75
2017-12-05T03:05:25.901Z,84.74
2017-12-05T03:07:30.247Z,84.72
2017-12-05T03:09:32.909Z,84.71
2017-12-05T03:11:34.944Z,84.78
2017-12-05T03:13:37.691Z,84.81
2017-12-05T03:15:47.503Z,84.81
2017-12-05T03:17:49.953Z,84.83
2017-12-05T03:19:54.878Z,84.79
2017-12-05T03:21:56.802Z,84.86
2017-12-05T03:24:08.929Z,84.82
2017-12-05T03:26:13.570Z,84.86
2017-12-05T03:28:26.888Z,84.87
2017-12-05T03:30:32.420Z,84.87
2017-12-05T03:32:44.255Z,84.85
2017-12-05T03:34:49.109Z,84.84
2017-12-05T03:36:51.247Z,84.88
2017-12-05T03:39:03.256Z,84.90
2017-12-05T03:41:06.020Z,84.96
2017-12-05T03:43:09.040Z,84.94
2017-12-05T03:45:13.293Z,84.94
2017-12-05T03:47:15.235Z,84.95
2017-12-05T03:49:17.680Z,84.93
2017-12-05T03:51:19.315Z,84.92
2017-12-05T03:53:21.197Z,84.96
2017-12-05T03:55:30.199Z,84.97
2017-12-05T03:59:54.989Z,84.93
2017-12-05T04:02:07.823Z,84.93
2017-12-05T04:04:15.238Z,84.96
2017-12-05T04:06:20.838Z,84.92
2017-12-05T04:08:29.323Z,84.94
2017-12-05T04:10:41.273Z,84.93
2017-12-05T04:12:53.286Z,84.94
2017-12-05T04:15:05.399Z,84.98
2017-12-05T04:17:07.724Z,85.05
2017-12-05T04:19:12.448Z,85.03
2017-12-05T04:21:16.055Z,85.04
2017-12-05T04:23:18.720Z,84.99
2017-12-05T04:25:30.373Z,85.02
2017-12-05T04:27:32.307Z,85.03
2017-12-05T04:29:35.246Z,85.08
2017-12-05T04:31:47.211Z,85.01
2017-12-05T04:33:52.280Z,85.05
2017-12-05T04:35:54.274Z,85.15
2017-12-05T04:37:57.261Z,85.08
2017-12-05T04:39:59.708Z,85.10
2017-12-05T04:42:02.260Z,85.18
2017-12-05T04:44:04.220Z,85.20
2017-12-05T04:46:06.249Z,85.23
2017-12-05T04:48:10.308Z,85.22
2017-12-05T04:50:13.255Z,85.23
2017-12-05T04:52:17.229Z,85.22
2017-12-05T04:54:20.224Z,85.23
2017-12-05T04:56:23.263Z,85.30
2017-12-05T04:58:28.261Z,85.30
2017-12-05T05:00:30.260Z,85.33
2017-12-05T05:02:32.268Z,85.33
2017-12-05T05:04:40.094Z,85.36
2017-12-05T05:06:45.220Z,85.44
2017-12-05T05:08:50.247Z,85.34
2017-12-05T05:11:02.109Z,85.43
2017-12-05T05:13:08.007Z,85.46
2017-12-05T05:15:11.993Z,85.46
2017-12-05T05:17:14.073Z,85.54
2017-12-05T05:19:17.651Z,85.54
2017-12-05T05:21:24.703Z,85.56
2017-12-05T05:23:31.298Z,85.61
2017-12-05T05:25:33.737Z,85.51
2017-12-05T05:27:38.666Z,85.64
2017-12-05T05:29:41.301Z,85.66
2017-12-05T05:31:44.342Z,85.60
2017-12-05T05:33:51.296Z,85.66
2017-12-05T05:35:53.688Z,85.69
2017-12-05T05:37:56.294Z,85.63
2017-12-05T05:39:59.407Z,85.69
2017-12-05T05:42:11.280Z,85.78
2017-12-05T05:44:14.652Z,85.83
2017-12-05T05:46:16.256Z,85.83
2017-12-05T05:48:19.402Z,85.76
2017-12-05T05:50:21.301Z,85.76
2017-12-05T05:52:25.245Z,85.86
2017-12-05T05:54:28.243Z,85.82
2017-12-05T05:56:35.491Z,85.82
2017-12-05T05:58:37.265Z,85.89
2017-12-05T06:00:39.725Z,85.91
2017-12-05T06:02:42.272Z,85.85
2017-12-05T06:04:44.283Z,85.88
2017-12-05T06:06:47.262Z,85.85
2017-12-05T06:09:02.360Z,85.89
2017-12-05T06:11:05.238Z,85.97
2017-12-05T06:13:12.289Z,85.94
2017-12-05T06:15:16.313Z,86.04
2017-12-05T06:17:29.448Z,86.01
2017-12-05T06:19:31.311Z,85.99
2017-12-05T06:26:18.418Z,86.11
2017-12-05T06:28:20.570Z,86.12
2017-12-05T06:30:24.883Z,86.10
2017-12-05T06:42:07.046Z,86.23
2017-12-05T06:44:20.582Z,86.28
2017-12-05T06:46:25.903Z,86.25
2017-12-05T06:48:28.541Z,86.29
2017-12-05T06:50:30.852Z,86.26
2017-12-05T06:52:34.599Z,86.28
2017-12-05T06:54:37.242Z,86.33
2017-12-05T06:56:40.713Z,86.29
2017-12-05T06:58:44.835Z,86.36
2017-12-05T07:00:50.771Z,86.28
2017-12-05T07:02:53.910Z,86.30
2017-12-05T07:05:06.270Z,86.32
2017-12-05T07:07:10.542Z,86.39
2017-12-05T07:09:14.028Z,86.30
2017-12-05T07:11:30.830Z,86.41
2017-12-05T07:13:33.744Z,86.35
2017-12-05T07:15:37.512Z,86.45
2017-12-05T07:25:39.826Z,86.49
2017-12-05T07:27:42.680Z,86.46
2017-12-05T07:29:54.908Z,86.43
2017-12-05T07:31:59.741Z,86.48
2017-12-05T07:34:10.605Z,86.48
2017-12-05T07:36:14.047Z,86.51
2017-12-05T07:38:16.885Z,86.54
2017-12-05T07:50:51.834Z,86.62
2017-12-05T07:52:55.639Z,86.64
2017-12-05T07:55:08.957Z,86.60
2017-12-05T07:57:14.608Z,86.61
2017-12-05T07:59:26.519Z,86.63
2017-12-05T08:01:38.305Z,86.63
2017-12-05T08:03:40.303Z,86.58
2017-12-05T08:05:42.435Z,86.60
2017-12-05T08:07:49.704Z,86.65
2017-12-05T08:09:55.061Z,86.59
2017-12-05T08:11:57.425Z,86.71
2017-12-05T08:14:01.403Z,86.62
2017-12-05T08:16:03.831Z,86.60
2017-12-05T08:18:59.610Z,86.74
2017-12-05T08:21:02.667Z,86.62
2017-12-05T08:23:07.445Z,86.63
2017-12-05T08:25:09.575Z,86.71
2017-12-05T08:27:13.497Z,86.64
2017-12-05T08:29:18.974Z,86.65
2017-12-05T08:39:16.713Z,86.69
2017-12-05T08:43:29.480Z,86.63
2017-12-05T08:45:36.685Z,86.72
2017-12-05T08:47:40.055Z,86.75
2017-12-05T08:49:43.774Z,86.69
2017-12-05T08:53:58.079Z,86.77
2017-12-05T08:56:04.902Z,86.80
2017-12-05T08:58:11.077Z,86.79
2017-12-05T09:00:17.089Z,86.73
2017-12-05T09:02:21.534Z,86.76
2017-12-05T09:04:26.787Z,86.73
2017-12-05T09:06:30.866Z,86.75
2017-12-05T09:08:36.945Z,86.79
2017-12-05T09:10:41.363Z,86.77
2017-12-05T09:12:44.676Z,86.75
2017-12-05T09:14:50.999Z,86.79
2017-12-05T09:16:54.445Z,86.80
2017-12-05T09:19:00.449Z,86.71
2017-12-05T09:21:05.144Z,86.73
2017-12-05T09:32:53.765Z,86.75
2017-12-05T09:35:09.312Z,86.77
2017-12-05T09:37:14.706Z,86.78
2017-12-05T09:43:22.600Z,86.79
2017-12-05T09:45:26.554Z,86.83
2017-12-05T09:47:30.312Z,86.87
2017-12-05T09:53:55.113Z,86.83
2017-12-05T10:13:53.820Z,86.94
2017-12-05T10:15:58.402Z,86.98
2017-12-05T10:18:03.957Z,87.04
2017-12-05T10:20:56.326Z,86.99
2017-12-05T10:31:14.307Z,86.97
2017-12-05T10:33:19.938Z,87.10
2017-12-05T10:35:25.893Z,87.04
2017-12-05T10:37:30.983Z,87.12
2017-12-05T10:39:43.363Z,87.10
2017-12-05T10:41:49.620Z,87.10
2017-12-05T10:43:57.679Z,87.06
2017-12-05T10:46:02.807Z,87.09
2017-12-05T10:48:06.421Z,87.10
2017-12-05T10:50:10.984Z,87.07
2017-12-05T10:52:30.353Z,87.07
2017-12-05T10:54:34.438Z,87.13
2017-12-05T10:58:10.989Z,87.11
2017-12-05T11:00:14.703Z,87.07
2017-12-05T11:02:27.756Z,87.13
2017-12-05T11:04:35.857Z,87.06
2017-12-05T11:06:39.933Z,87.03
2017-12-05T11:12:51.635Z,86.99
2017-12-05T11:25:01.681Z,87.04
2017-12-05T11:27:04.299Z,87.04
2017-12-05T11:29:16.084Z,87.05
2017-12-05T11:31:24.899Z,87.11
2017-12-05T11:35:39.552Z,87.04
2017-12-05T11:41:12.988Z,87.10
2017-12-05T11:43:22.531Z,87.07
2017-12-05T11:45:25.389Z,87.01
2017-12-05T11:47:27.886Z,87.00
2017-12-05T11:51:41.852Z,87.03
2017-12-05T11:53:52.783Z,87.08
2017-12-05T11:56:01.182Z,87.08
2017-12-05T12:04:24.667Z,87.09
2017-12-05T12:11:10.933Z,87.19
2017-12-05T12:13:19.581Z,87.08
2017-12-05T12:15:25.987Z,87.23
2017-12-05T12:17:49.586Z,87.20
2017-12-05T12:19:53.595Z,87.16
2017-12-05T12:24:11.650Z,87.17
2017-12-05T12:26:18.235Z,87.19
2017-12-05T12:28:24.817Z,87.23
2017-12-05T12:39:23.564Z,87.21
2017-12-05T12:41:28.614Z,87.17
2017-12-05T12:43:34.142Z,87.24
2017-12-05T12:45:40.936Z,87.23
2017-12-05T12:48:01.242Z,87.16
2017-12-05T12:52:04.470Z,87.17
2017-12-05T13:02:21.322Z,87.23
2017-12-05T13:04:23.914Z,87.24
2017-12-05T13:14:10.758Z,87.20
2017-12-05T13:16:14.061Z,87.21
2017-12-05T13:18:17.455Z,87.09
2017-12-05T13:20:20.940Z,87.22
2017-12-05T13:22:26.697Z,87.23
2017-12-05T13:24:30.561Z,87.26
2017-12-05T13:26:34.455Z,87.23
2017-12-05T13:28:39.725Z,87.26
2017-12-05T13:30:42.738Z,87.23
2017-12-05T13:32:47.215Z,87.23
2017-12-05T13:34:52.307Z,87.20
2017-12-05T13:36:55.484Z,87.21
2017-12-05T13:38:58.739Z,87.20
2017-12-05T13:41:01.963Z,87.18
2017-12-05T13:43:04.846Z,87.17
2017-12-05T13:45:07.941Z,87.18
2017-12-05T13:47:10.821Z,87.09
2017-12-05T13:49:13.976Z,87.12
2017-12-05T13:51:17.008Z,87.12
2017-12-05T13:53:20.293Z,87.08
2017-12-05T13:55:24.111Z,87.15
2017-12-05T13:57:28.025Z,87.12
2017-12-05T13:59:30.960Z,87.12
2017-12-05T14:01:34.022Z,87.13
2017-12-05T14:03:36.851Z,87.27
2017-12-05T14:05:39.810Z,87.09
2017-12-05T14:07:42.654Z,87.20
2017-12-05T14:09:45.839Z,87.13
2017-12-05T14:11:49.530Z,87.19
2017-12-05T14:13:52.718Z,87.13
2017-12-05T14:15:55.935Z,87.17
2017-12-05T14:17:58.547Z,87.14
2017-12-05T14:20:02.713Z,87.20
2017-12-05T14:22:06.105Z,87.01
2017-12-05T14:24:08.921Z,87.06
2017-12-05T14:26:11.995Z,87.14
2017-12-05T14:28:15.095Z,87.15
2017-12-05T14:30:18.082Z,87.14
2017-12-05T14:32:21.319Z,87.15
2017-12-05T14:34:24.556Z,87.11
2017-12-05T14:36:27.681Z,87.16
2017-12-05T14:38:30.928Z,87.17
2017-12-05T14:40:33.495Z,87.05
2017-12-05T14:42:36.380Z,87.09
2017-12-05T14:44:39.727Z,87.10
2017-12-05T14:46:44.354Z,86.98
2017-12-05T14:48:49.983Z,87.04
2017-12-05T14:50:52.947Z,87.13
2017-12-05T14:52:56.028Z,87.13
2017-12-05T14:54:59.028Z,87.13
2017-12-05T14:57:02.007Z,87.13
2017-12-05T14:59:06.011Z,87.15
2017-12-05T15:01:10.011Z,87.06
2017-12-05T15:03:12.889Z,87.14
2017-12-05T15:05:16.026Z,87.10
2017-12-05T15:07:19.716Z,87.10
2017-12-05T15:09:22.334Z,87.13
2017-12-05T15:11:25.461Z,87.10
2017-12-05T15:13:27.941Z,87.14
2017-12-05T15:15:30.783Z,87.16
2017-12-05T15:17:34.398Z,87.14
2017-12-05T15:19:36.884Z,87.16
2017-12-05T15:21:39.881Z,87.13
2017-12-05T15:23:43.061Z,87.14
2017-12-05T15:25:48.126Z,87.14
2017-12-05T15:29:27.926Z,87.12
2017-12-05T15:31:30.951Z,87.18
2017-12-05T15:33:33.994Z,87.11
2017-12-05T15:35:36.938Z,87.22
2017-12-05T15:37:40.026Z,87.07
2017-12-05T15:39:43.064Z,87.14
2017-12-05T15:41:45.891Z,87.08
2017-12-05T15:43:49.471Z,87.14
2017-12-05T15:45:52.224Z,87.16
2017-12-05T15:47:55.001Z,87.17
2017-12-05T15:49:57.995Z,87.09
2017-12-05T15:52:00.984Z,87.13
2017-12-05T15:54:04.315Z,87.11
2017-12-05T15:56:06.948Z,87.17
2017-12-05T15:58:29.801Z,87.10
2017-12-05T16:00:31.979Z,87.16
2017-12-05T16:02:34.561Z,87.06
2017-12-05T16:04:37.960Z,87.14
2017-12-05T16:06:41.061Z,87.12
2017-12-05T16:08:44.060Z,87.13
2017-12-05T16:10:47.736Z,87.24
2017-12-05T16:12:53.362Z,87.19
2017-12-05T16:17:03.449Z,87.20
2017-12-05T16:19:06.144Z,87.15
2017-12-05T16:21:08.894Z,87.14
2017-12-05T16:23:11.586Z,87.20
2017-12-05T16:25:14.356Z,87.16
2017-12-05T16:27:16.823Z,87.13
2017-12-05T16:31:11.763Z,87.16
2017-12-05T16:33:14.803Z,87.17
2017-12-05T16:35:17.086Z,87.11
2017-12-05T16:37:19.871Z,87.15
2017-12-05T16:39:23.323Z,87.17
2017-12-05T16:41:25.948Z,87.21
2017-12-05T16:43:28.930Z,87.19
2017-12-05T16:45:33.661Z,87.17
2017-12-05T16:47:36.050Z,87.19
2017-12-05T16:49:38.796Z,87.14
2017-12-05T16:51:41.055Z,87.16
2017-12-05T16:53:43.946Z,87.22
2017-12-05T16:55:47.859Z,87.21
2017-12-05T16:57:50.875Z,87.24
2017-12-05T16:59:53.861Z,87.21
2017-12-05T17:04:28.024Z,87.18
2017-12-05T17:06:30.850Z,87.19
2017-12-05T17:08:32.984Z,87.14
2017-12-05T17:10:36.810Z,87.15
2017-12-05T17:12:39.098Z,87.17
2017-12-05T17:14:41.990Z,87.15
2017-12-05T17:16:44.682Z,87.16
2017-12-05T17:19:35.569Z,87.16
2017-12-05T17:21:38.135Z,87.17
2017-12-05T17:23:41.031Z,87.19
2017-12-05T17:25:44.026Z,87.19
2017-12-05T17:27:46.891Z,87.19
2017-12-05T17:29:49.932Z,87.19
2017-12-05T17:31:52.957Z,87.18
2017-12-05T17:33:55.742Z,87.14
2017-12-05T17:35:58.418Z,87.13
2017-12-05T17:38:00.897Z,87.13
2017-12-05T17:40:03.576Z,87.17
2017-12-05T17:42:05.945Z,87.16
2017-12-05T17:44:08.421Z,87.17
2017-12-05T17:46:11.896Z,87.19
2017-12-05T17:48:14.358Z,87.16
2017-12-05T17:50:17.080Z,87.09
2017-12-05T17:52:19.956Z,87.15
2017-12-05T17:54:22.434Z,87.12
2017-12-05T17:56:25.933Z,87.12
2017-12-05T17:58:28.812Z,87.13
2017-12-05T18:00:31.082Z,87.14
2017-12-05T18:02:34.404Z,87.15
2017-12-05T18:04:37.978Z,87.12
2017-12-05T18:06:40.551Z,87.15
2017-12-05T18:08:43.976Z,87.10
2017-12-05T18:10:46.735Z,87.13
2017-12-05T18:12:48.994Z,87.10
2017-12-05T18:14:52.116Z,87.04
2017-12-05T18:16:56.824Z,87.14
2017-12-05T18:18:59.074Z,87.07
2017-12-05T18:21:01.951Z,87.06
2017-12-05T18:23:04.537Z,87.07
2017-12-05T18:25:06.908Z,87.08
2017-12-05T18:27:09.596Z,87.04
2017-12-05T18:29:12.808Z,87.03
2017-12-05T18:39:27.906Z,87.04
2017-12-05T18:43:50.976Z,87.01
2017-12-05T18:45:52.924Z,87.00
2017-12-05T18:47:55.734Z,86.96
2017-12-05T18:49:57.979Z,86.96
2017-12-05T18:52:00.452Z,87.00
2017-12-05T18:54:02.830Z,86.97
2017-12-05T18:56:05.006Z,86.99
2017-12-05T18:58:08.688Z,86.99
2017-12-05T19:00:11.339Z,86.97
2017-12-05T19:02:14.187Z,86.92
2017-12-05T19:04:16.742Z,86.93
2017-12-05T19:06:18.773Z,86.93
2017-12-05T19:12:24.341Z,86.87
2017-12-05T19:14:26.821Z,86.88
2017-12-05T19:16:29.511Z,86.87
2017-12-05T19:18:31.871Z,86.84
2017-12-05T19:20:34.226Z,86.82
2017-12-05T19:22:37.760Z,86.82
2017-12-05T19:24:40.536Z,86.85
2017-12-05T19:26:42.894Z,86.84
2017-12-05T19:28:45.884Z,86.83
2017-12-05T19:30:48.360Z,86.83
2017-12-05T19:32:50.956Z,86.80
2017-12-05T19:34:53.814Z,86.76
2017-12-05T19:36:59.570Z,86.77
2017-12-05T19:39:02.256Z,86.71
2017-12-05T19:41:32.578Z,86.71
2017-12-05T19:43:34.730Z,86.72
2017-12-05T19:45:37.071Z,86.71
2017-12-05T19:47:39.689Z,86.72
2017-12-05T19:49:42.062Z,86.72
2017-12-05T19:51:44.852Z,86.72
2017-12-05T19:53:47.828Z,86.66
2017-12-05T19:55:50.092Z,86.71
2017-12-05T19:57:52.574Z,86.70
2017-12-05T19:59:54.916Z,86.74
2017-12-05T20:01:57.430Z,86.76
2017-12-05T20:03:59.883Z,86.77
2017-12-05T20:06:01.944Z,86.74
2017-12-05T20:08:04.150Z,86.77
2017-12-05T20:10:06.920Z,86.74
2017-12-05T20:12:09.485Z,86.77
2017-12-05T20:14:12.361Z,86.77
2017-12-05T20:16:14.934Z,86.74
2017-12-05T20:18:18.841Z,86.74
2017-12-05T20:20:21.016Z,86.73
2017-12-05T20:22:24.009Z,86.72
2017-12-05T20:24:26.981Z,86.70
2017-12-05T20:26:29.471Z,86.72
2017-12-05T20:28:31.715Z,86.70
2017-12-05T20:30:34.511Z,86.73
2017-12-05T20:32:36.993Z,86.66
2017-12-05T20:34:39.851Z,86.63
2017-12-05T20:36:42.009Z,86.65
2017-12-05T20:38:44.707Z,86.61
2017-12-05T20:40:46.957Z,86.59
2017-12-05T20:42:49.726Z,86.61
2017-12-05T20:44:52.010Z,86.62
2017-12-05T20:46:54.515Z,86.62
2017-12-05T20:48:59.807Z,86.59
2017-12-05T20:51:02.097Z,86.59
2017-12-05T20:53:04.590Z,86.59
2017-12-05T20:55:06.797Z,86.59
2017-12-05T20:57:09.018Z,86.58
2017-12-05T20:59:11.613Z,86.53
2017-12-05T21:01:13.836Z,86.49
2017-12-05T21:03:16.550Z,86.53
2017-12-05T21:05:18.804Z,86.51
2017-12-05T21:07:21.711Z,86.48
2017-12-05T21:09:23.954Z,86.50
2017-12-05T21:11:26.551Z,86.49
2017-12-05T21:13:28.901Z,86.49
2017-12-05T21:15:31.711Z,86.48
2017-12-05T21:25:59.930Z,86.37
2017-12-05T21:28:01.879Z,86.41
2017-12-05T21:30:04.275Z,86.37
2017-12-05T21:32:07.956Z,86.41
2017-12-05T21:34:10.822Z,86.40
2017-12-05T21:36:13.002Z,86.41
2017-12-05T21:38:15.597Z,86.40
2017-12-05T21:40:18.263Z,86.40
2017-12-05T21:42:21.036Z,86.43
2017-12-05T21:44:23.723Z,86.44
2017-12-05T21:54:58.909Z,86.32
2017-12-05T21:59:18.924Z,86.34
2017-12-05T22:01:21.386Z,86.29
2017-12-05T22:03:58.060Z,86.29
2017-12-05T22:06:00.943Z,86.29
2017-12-05T22:08:02.997Z,86.29
2017-12-05T22:10:05.392Z,86.29
2017-12-05T22:12:07.940Z,86.27
2017-12-05T22:14:10.415Z,86.24
2017-12-05T22:16:12.888Z,86.28
2017-12-05T22:18:15.367Z,86.27
2017-12-05T22:20:17.751Z,86.23
2017-12-05T22:22:19.876Z,86.27
2017-12-05T22:24:22.801Z,86.20
2017-12-05T22:26:25.556Z,86.20
2017-12-05T22:28:28.020Z,86.21
2017-12-05T22:30:30.844Z,86.22
2017-12-05T22:32:33.260Z,86.22
2017-12-05T22:34:35.850Z,86.22
2017-12-05T22:36:38.425Z,86.18
2017-12-05T22:38:40.715Z,86.21
2017-12-05T22:40:43.676Z,86.20
2017-12-05T22:42:46.054Z,86.18
2017-12-05T22:44:48.736Z,86.17
2017-12-05T22:46:51.397Z,86.13
2017-12-05T22:48:53.664Z,86.16
2017-12-05T22:50:55.821Z,86.22
2017-12-05T22:52:58.000Z,86.20
2017-12-05T22:55:00.277Z,86.18
2017-12-05T22:57:03.371Z,86.13
2017-12-05T22:59:06.020Z,86.15
2017-12-05T23:01:08.036Z,86.06
2017-12-05T23:03:10.477Z,86.11
2017-12-05T23:05:12.937Z,86.13
2017-12-05T23:07:14.985Z,86.08
2017-12-05T23:09:17.575Z,86.07
2017-12-05T23:11:19.931Z,86.03
2017-12-05T23:13:22.317Z,86.07
2017-12-05T23:15:24.585Z,86.11
2017-12-05T23:17:26.944Z,86.10
2017-12-05T23:21:48.604Z,86.08
2017-12-05T23:23:50.939Z,86.07
2017-12-05T23:25:52.788Z,86.05
2017-12-05T23:27:55.267Z,86.08
2017-12-05T23:29:57.961Z,86.07
2017-12-05T23:32:00.518Z,86.08
2017-12-05T23:34:02.712Z,86.09
2017-12-05T23:44:26.954Z,86.01
2017-12-05T23:46:29.405Z,85.95
2017-12-05T23:48:31.776Z,85.93
2017-12-05T23:50:33.853Z,85.91
2017-12-05T23:52:35.994Z,85.86
2017-12-05T23:54:38.960Z,85.91
2017-12-05T23:56:41.239Z,85.90
2017-12-05T23:58:43.935Z,85.91
